Partly Cloudy Current Weather (METAR) For Cancun Airport

All times on the weather descriptions are local

Observed at 12:44 - (43 mins ago)

Partly Cloudy

26°C

Partly Cloudy
Clouds: Scattered Clouds at 2,000ft
Wind: 090° at 06 knots
Visibility: 7 statute miles
QNH:
Dew Point: 19°C
Runway in Use: Runway 12

Sunrise Today: 06:17
Sunset Today: 17:11

Forecast Weather (TAF) For Cancun Airport

Issued at 18:00 - (13 days ago)


Runway in Use: Unable to determine, wind is clam

Forecast valid until 18:00 on Tuesday

METAR/TAF RAW METAR / TAF

MMUN 181844Z 09006KT 7SM SCT020 26/19 A3004 RMK 8/100 SC

Weather Widget

Put weather from any of our airports on your website with our weather widget.

Find Another Search

Airport Search


Please Wait Please Wait - Loading
Close
Close

Login

Username:

Password:

Remember Me:

Remember me on this computer

Forgotten your password? Get a reset password sent to your registered e-mail address

Close

User Private Message

Subject:

Message: